Time;durP1;ratioP1;P1;durP2;ratioP2;P2;SDS_P1;SDS_P2;PMS_P1;PMS_P2;Temp;Humidity;BMP_temperature;BMP_pressure;BME280_temperature;BME280_humidity;BME280_pressure;Samples;Min_cycle;Max_cycle;Signal;HPM_P1;HPM_P2
2023/05/09 00:01:39;;;;;;;35.30;17.05;;;;;;;;;;4989197;28;20038;-81
2023/05/09 00:04:05;;;;;;;39.35;17.50;;;;;;;;;;4989431;28;20107;-81
2023/05/09 00:06:31;;;;;;;41.00;18.08;;;;;;;;;;4972598;28;20035;-80
2023/05/09 00:08:57;;;;;;;45.30;19.02;;;;;;;;;;4988256;28;20078;-81
2023/05/09 00:11:23;;;;;;;45.92;21.83;;;;;;;;;;4988805;28;20039;-81
2023/05/09 00:13:49;;;;;;;57.63;26.30;;;;;;;;;;4989654;28;20065;-81
2023/05/09 00:16:16;;;;;;;67.32;30.02;;;;;;;;;;4986446;28;20034;-80
2023/05/09 00:18:42;;;;;;;56.53;26.52;;;;;;;;;;5006031;28;20038;-80
2023/05/09 00:21:08;;;;;;;57.83;26.73;;;;;;;;;;5002547;28;20433;-81
2023/05/09 00:23:34;;;;;;;57.13;22.27;;;;;;;;;;5003509;28;20637;-81
2023/05/09 00:26:01;;;;;;;44.42;19.05;;;;;;;;;;5004909;28;20034;-80
2023/05/09 00:28:26;;;;;;;39.25;18.40;;;;;;;;;;5004540;28;20045;-81
2023/05/09 00:30:52;;;;;;;34.60;17.52;;;;;;;;;;4974584;28;20034;-81
2023/05/09 00:33:18;;;;;;;59.95;20.77;;;;;;;;;;4987177;28;20049;-81
2023/05/09 00:35:45;;;;;;;39.63;16.92;;;;;;;;;;5006811;28;20057;-80
2023/05/09 00:38:11;;;;;;;40.63;14.45;;;;;;;;;;5007426;28;20076;-79
2023/05/09 00:40:37;;;;;;;23.92;11.35;;;;;;;;;;5007439;28;20040;-80
2023/05/09 00:43:03;;;;;;;19.52;10.32;;;;;;;;;;4974404;28;20038;-81
2023/05/09 00:45:30;;;;;;;23.60;10.32;;;;;;;;;;5005822;28;20039;-81
2023/05/09 00:47:56;;;;;;;26.70;11.18;;;;;;;;;;5008370;28;20045;-81
2023/05/09 00:50:25;;;;;;;21.77;12.77;;;;;;;;;;5009084;28;20099;-81
2023/05/09 00:52:51;;;;;;;24.55;12.35;;;;;;;;;;5011855;28;20038;-79
2023/05/09 00:55:17;;;;;;;36.42;12.88;;;;;;;;;;5011190;28;20042;-81
2023/05/09 00:57:43;;;;;;;34.70;13.48;;;;;;;;;;5007419;28;20045;-80
2023/05/09 01:00:13;;;;;;;26.85;12.70;;;;;;;;;;5007440;28;20038;-82
2023/05/09 01:02:40;;;;;;;36.17;17.98;;;;;;;;;;5009144;28;20038;-81
2023/05/09 01:05:06;;;;;;;41.83;18.95;;;;;;;;;;5005617;28;20029;-80
2023/05/09 01:10:29;;;;;;;43.72;18.30;;;;;;;;;;5205416;22;20049;-82
2023/05/09 01:13:14;;;;;;;52.97;19.30;;;;;;;;;;4967164;28;20050;-80
2023/05/09 01:15:50;;;;;;;35.00;15.02;;;;;;;;;;4967686;28;20042;-83
2023/05/09 01:18:32;;;;;;;36.88;15.82;;;;;;;;;;5180772;23;20057;-81
2023/05/09 01:21:02;;;;;;;37.05;15.68;;;;;;;;;;5036273;28;20073;-81
2023/05/09 01:23:29;;;;;;;32.03;15.40;;;;;;;;;;5039163;28;20101;-82
2023/05/09 01:26:05;;;;;;;42.38;16.27;;;;;;;;;;5006882;28;20062;-82
2023/05/09 01:28:36;;;;;;;40.08;15.80;;;;;;;;;;5013675;28;20041;-81
2023/05/09 01:31:03;;;;;;;37.75;15.00;;;;;;;;;;5020713;28;20045;-82
2023/05/09 01:33:29;;;;;;;39.40;17.02;;;;;;;;;;5008667;28;20038;-82
2023/05/09 01:35:57;;;;;;;36.00;15.13;;;;;;;;;;5018478;28;20031;-82
2023/05/09 01:38:23;;;;;;;42.05;17.75;;;;;;;;;;5018049;28;20038;-83
2023/05/09 01:46:43;;;;;;;44.10;20.83;;;;;;;;;;5203180;22;20049;-82
2023/05/09 01:49:10;;;;;;;43.42;19.52;;;;;;;;;;5037863;28;20030;-84
2023/05/09 01:51:36;;;;;;;30.25;17.02;;;;;;;;;;5240362;22;20076;-85
2023/05/09 01:54:01;;;;;;;44.97;19.58;;;;;;;;;;5002979;28;20025;-82
2023/05/09 01:56:27;;;;;;;36.08;15.70;;;;;;;;;;5018346;28;20088;-83
2023/05/09 01:58:54;;;;;;;38.20;15.02;;;;;;;;;;5019242;28;20010;-81
2023/05/09 02:01:20;;;;;;;38.78;16.52;;;;;;;;;;5037902;28;20029;-82
2023/05/09 02:03:49;;;;;;;48.78;18.73;;;;;;;;;;5020462;28;20041;-83
2023/05/09 02:06:15;;;;;;;52.58;21.65;;;;;;;;;;5037545;28;20026;-82
2023/05/09 02:08:41;;;;;;;50.95;20.48;;;;;;;;;;5036115;28;20072;-82
2023/05/09 02:11:07;;;;;;;46.42;19.52;;;;;;;;;;5038036;28;20044;-84
2023/05/09 02:13:34;;;;;;;36.70;15.73;;;;;;;;;;5021692;28;20022;-84
2023/05/09 02:16:00;;;;;;;30.80;15.50;;;;;;;;;;5005521;28;20042;-82
2023/05/09 02:18:27;;;;;;;41.95;17.88;;;;;;;;;;5020564;28;20018;-84
2023/05/09 02:20:53;;;;;;;53.25;19.00;;;;;;;;;;5035078;28;20049;-81
2023/05/09 02:23:19;;;;;;;43.80;17.73;;;;;;;;;;5017423;28;20052;-81
2023/05/09 02:25:45;;;;;;;40.97;17.20;;;;;;;;;;4999827;28;20035;-83
2023/05/09 02:28:11;;;;;;;45.95;16.08;;;;;;;;;;5020047;28;20040;-82
2023/05/09 02:30:41;;;;;;;34.80;17.50;;;;;;;;;;5230917;22;20029;-80
2023/05/09 02:33:07;;;;;;;34.08;15.35;;;;;;;;;;5018561;28;20408;-82
2023/05/09 02:35:35;;;;;;;43.88;17.38;;;;;;;;;;5019213;28;20045;-81
2023/05/09 02:38:01;;;;;;;43.08;18.00;;;;;;;;;;5003076;28;20018;-81
2023/05/09 02:40:28;;;;;;;32.60;16.15;;;;;;;;;;5022546;28;20057;-82
2023/05/09 02:42:55;;;;;;;39.20;17.05;;;;;;;;;;5033667;28;20076;-81
2023/05/09 02:45:21;;;;;;;41.47;17.67;;;;;;;;;;5033815;28;20016;-81
2023/05/09 02:47:48;;;;;;;41.33;17.38;;;;;;;;;;5035653;28;20041;-82
2023/05/09 02:50:14;;;;;;;34.85;16.88;;;;;;;;;;5019156;28;20112;-81
2023/05/09 02:52:40;;;;;;;39.67;16.70;;;;;;;;;;5031360;28;20042;-82
2023/05/09 02:55:06;;;;;;;26.60;16.65;;;;;;;;;;5021158;28;20062;-81
2023/05/09 02:57:36;;;;;;;38.22;16.98;;;;;;;;;;4995572;28;20128;-81
2023/05/09 03:00:02;;;;;;;43.05;17.08;;;;;;;;;;4980951;28;20058;-81
2023/05/09 03:02:32;;;;;;;37.22;17.02;;;;;;;;;;5006625;28;20077;-80
2023/05/09 03:04:59;;;;;;;37.75;19.40;;;;;;;;;;5018018;28;20118;-82
2023/05/09 03:07:26;;;;;;;41.15;17.58;;;;;;;;;;5000785;28;20452;-81
2023/05/09 03:09:52;;;;;;;49.70;19.67;;;;;;;;;;5014553;28;20043;-80
2023/05/09 03:12:18;;;;;;;30.90;16.70;;;;;;;;;;5013918;28;20079;-81
2023/05/09 03:14:44;;;;;;;38.95;16.92;;;;;;;;;;4994782;28;20046;-81
2023/05/09 03:17:10;;;;;;;37.42;17.48;;;;;;;;;;5011496;28;20035;-81
2023/05/09 03:19:36;;;;;;;42.70;17.00;;;;;;;;;;4975334;28;20113;-81
2023/05/09 03:22:02;;;;;;;40.47;15.25;;;;;;;;;;4990913;28;20036;-81
2023/05/09 03:24:32;;;;;;;29.17;14.80;;;;;;;;;;4987416;28;20038;-81
2023/05/09 03:26:58;;;;;;;45.70;17.58;;;;;;;;;;4987001;28;20043;-79
2023/05/09 03:29:24;;;;;;;40.65;19.08;;;;;;;;;;4970600;28;20042;-80
2023/05/09 03:31:50;;;;;;;39.28;16.83;;;;;;;;;;4972789;28;20073;-80
2023/05/09 03:34:17;;;;;;;35.15;17.10;;;;;;;;;;4957248;28;20078;-80
2023/05/09 03:36:44;;;;;;;30.20;15.63;;;;;;;;;;4977394;28;20035;-78
2023/05/09 03:39:12;;;;;;;40.35;14.93;;;;;;;;;;4993729;28;20069;-77
2023/05/09 03:41:40;;;;;;;32.45;16.50;;;;;;;;;;4977517;28;20046;-77
2023/05/09 03:44:07;;;;;;;30.95;17.15;;;;;;;;;;4995374;28;20057;-79
2023/05/09 03:46:33;;;;;;;37.13;16.35;;;;;;;;;;4996571;28;20140;-81
2023/05/09 03:48:59;;;;;;;35.50;17.42;;;;;;;;;;4991215;28;20582;-80
2023/05/09 03:51:25;;;;;;;32.88;13.98;;;;;;;;;;4986781;28;20049;-79
2023/05/09 03:53:53;;;;;;;24.50;15.82;;;;;;;;;;4990458;28;20045;-79
2023/05/09 03:56:21;;;;;;;34.70;12.02;;;;;;;;;;4965070;28;20423;-79
2023/05/09 03:58:50;;;;;;;41.07;15.47;;;;;;;;;;4964301;28;20043;-78
2023/05/09 04:01:16;;;;;;;27.75;14.63;;;;;;;;;;4979073;28;20283;-79
2023/05/09 04:03:43;;;;;;;31.17;15.88;;;;;;;;;;4945072;28;20096;-79
2023/05/09 04:06:10;;;;;;;29.52;14.45;;;;;;;;;;4983338;28;20093;-79
2023/05/09 04:08:41;;;;;;;29.58;14.32;;;;;;;;;;4966392;28;20093;-79
2023/05/09 04:11:07;;;;;;;26.00;14.80;;;;;;;;;;4963745;28;20077;-79
2023/05/09 04:13:36;;;;;;;30.77;14.25;;;;;;;;;;4979830;28;20062;-80
2023/05/09 04:16:08;;;;;;;30.77;14.82;;;;;;;;;;4966302;28;20049;-79
2023/05/09 04:18:35;;;;;;;29.15;14.13;;;;;;;;;;4968702;28;20043;-78
2023/05/09 04:21:02;;;;;;;35.92;14.73;;;;;;;;;;4987992;28;20031;-82
2023/05/09 04:23:28;;;;;;;21.67;13.30;;;;;;;;;;4975539;28;20058;-82
2023/05/09 04:25:57;;;;;;;28.27;14.55;;;;;;;;;;4986398;28;20033;-80
2023/05/09 04:28:24;;;;;;;33.47;14.05;;;;;;;;;;4984629;28;20078;-79
2023/05/09 04:30:50;;;;;;;28.92;16.00;;;;;;;;;;4969268;28;20031;-80
2023/05/09 04:33:17;;;;;;;34.35;17.38;;;;;;;;;;4989421;28;20066;-80
2023/05/09 04:35:43;;;;;;;25.63;14.95;;;;;;;;;;4987380;28;20039;-81
2023/05/09 04:38:10;;;;;;;29.92;15.13;;;;;;;;;;4993383;28;20042;-81
2023/05/09 04:40:36;;;;;;;28.20;14.48;;;;;;;;;;4992998;28;20025;-81
2023/05/09 04:43:03;;;;;;;30.50;15.65;;;;;;;;;;4975502;28;20043;-81
2023/05/09 04:45:30;;;;;;;21.15;14.43;;;;;;;;;;4973393;28;20066;-81
2023/05/09 04:47:58;;;;;;;32.78;15.93;;;;;;;;;;4972294;28;20030;-81
2023/05/09 04:50:24;;;;;;;35.13;16.52;;;;;;;;;;4971992;28;20130;-79
2023/05/09 04:52:50;;;;;;;24.55;15.52;;;;;;;;;;4984844;28;20045;-81
2023/05/09 04:55:17;;;;;;;32.20;15.18;;;;;;;;;;4989960;28;20061;-80
2023/05/09 04:57:46;;;;;;;23.02;14.43;;;;;;;;;;4990898;28;20047;-80
2023/05/09 05:00:12;;;;;;;30.67;14.73;;;;;;;;;;4988547;28;20039;-80
2023/05/09 05:02:39;;;;;;;30.88;14.85;;;;;;;;;;4978343;28;20038;-80
2023/05/09 05:05:05;;;;;;;27.25;13.88;;;;;;;;;;4994070;28;20034;-81
2023/05/09 05:07:35;;;;;;;32.10;14.07;;;;;;;;;;4996004;28;20046;-80
2023/05/09 05:10:01;;;;;;;24.98;13.55;;;;;;;;;;4969778;28;20034;-77
2023/05/09 05:12:30;;;;;;;24.63;13.88;;;;;;;;;;4964499;28;20059;-80
2023/05/09 05:14:57;;;;;;;22.30;13.95;;;;;;;;;;4971317;28;20051;-80
2023/05/09 05:17:23;;;;;;;25.33;14.05;;;;;;;;;;4990863;28;20049;-80
2023/05/09 05:19:50;;;;;;;25.40;14.18;;;;;;;;;;4960938;28;20058;-82
2023/05/09 05:22:17;;;;;;;21.00;13.00;;;;;;;;;;4971907;28;20145;-79
2023/05/09 05:24:45;;;;;;;17.95;11.65;;;;;;;;;;4989994;28;20030;-73
2023/05/09 05:27:11;;;;;;;21.65;11.55;;;;;;;;;;4956862;28;20113;-72
2023/05/09 05:29:37;;;;;;;19.73;10.23;;;;;;;;;;4986809;28;20058;-73
2023/05/09 05:32:03;;;;;;;21.40;10.88;;;;;;;;;;4978878;28;20133;-73
2023/05/09 05:34:30;;;;;;;20.50;11.32;;;;;;;;;;4975518;28;20039;-74
2023/05/09 05:36:56;;;;;;;19.10;10.27;;;;;;;;;;4957052;28;20027;-75
2023/05/09 05:39:22;;;;;;;17.40;10.57;;;;;;;;;;4981429;28;20070;-76
2023/05/09 05:41:50;;;;;;;18.70;10.50;;;;;;;;;;4976224;28;20031;-73
2023/05/09 05:44:16;;;;;;;16.98;9.60;;;;;;;;;;4972865;28;20039;-73
2023/05/09 05:46:43;;;;;;;12.93;6.60;;;;;;;;;;4944075;28;20038;-73
2023/05/09 05:49:09;;;;;;;5.18;4.75;;;;;;;;;;4955140;28;20040;-73
2023/05/09 05:51:35;;;;;;;10.10;4.97;;;;;;;;;;4945519;28;20031;-72
2023/05/09 05:54:03;;;;;;;5.40;4.82;;;;;;;;;;4967774;28;20039;-73
2023/05/09 05:56:29;;;;;;;6.07;4.22;;;;;;;;;;4971987;28;20508;-73
2023/05/09 05:58:56;;;;;;;6.03;4.57;;;;;;;;;;4955734;28;20062;-73
2023/05/09 06:01:22;;;;;;;12.23;6.65;;;;;;;;;;4950976;28;20496;-72
2023/05/09 06:03:53;;;;;;;18.92;8.60;;;;;;;;;;4967186;28;20047;-73
2023/05/09 06:06:23;;;;;;;10.95;8.38;;;;;;;;;;4953402;28;20030;-72
2023/05/09 06:08:49;;;;;;;5.93;4.20;;;;;;;;;;4953915;28;20038;-73
2023/05/09 06:11:15;;;;;;;3.75;3.40;;;;;;;;;;4962877;28;20062;-73
2023/05/09 06:13:41;;;;;;;4.20;3.00;;;;;;;;;;4961799;28;20076;-72
2023/05/09 06:16:09;;;;;;;2.95;2.75;;;;;;;;;;4935084;28;20034;-72
2023/05/09 06:18:36;;;;;;;2.83;2.63;;;;;;;;;;4979483;28;20073;-72
2023/05/09 06:21:03;;;;;;;2.85;2.50;;;;;;;;;;4931504;28;20053;-72
2023/05/09 06:23:28;;;;;;;3.03;2.80;;;;;;;;;;4963521;28;20150;-72
2023/05/09 06:25:54;;;;;;;2.90;2.70;;;;;;;;;;4959525;28;20064;-72
2023/05/09 06:28:20;;;;;;;2.40;2.20;;;;;;;;;;4969569;28;20085;-72
2023/05/09 06:30:47;;;;;;;3.45;2.55;;;;;;;;;;4951464;28;20070;-75
2023/05/09 06:33:13;;;;;;;4.95;2.40;;;;;;;;;;4971246;28;20065;-74
2023/05/09 06:35:42;;;;;;;4.22;2.42;;;;;;;;;;4969207;28;20350;-77
2023/05/09 06:38:09;;;;;;;2.45;2.08;;;;;;;;;;4952770;28;20125;-76
2023/05/09 06:40:37;;;;;;;1.73;1.67;;;;;;;;;;4933351;29;20379;-76
2023/05/09 06:43:03;;;;;;;2.47;2.35;;;;;;;;;;4968849;28;20042;-78
2023/05/09 06:45:35;;;;;;;2.15;2.05;;;;;;;;;;4971157;28;20485;-77
2023/05/09 06:48:01;;;;;;;2.25;1.90;;;;;;;;;;4971307;28;20073;-77
2023/05/09 06:50:33;;;;;;;3.80;1.85;;;;;;;;;;4972984;28;20104;-77
2023/05/09 06:53:02;;;;;;;2.40;2.00;;;;;;;;;;4988051;28;20117;-77
2023/05/09 06:55:36;;;;;;;1.95;1.85;;;;;;;;;;4971695;28;20042;-78
2023/05/09 06:58:13;;;;;;;2.53;2.33;;;;;;;;;;4965716;28;20038;-77
2023/05/09 07:00:39;;;;;;;2.80;2.03;;;;;;;;;;4956556;28;20027;-77
2023/05/09 07:03:09;;;;;;;2.22;2.13;;;;;;;;;;4972149;28;20050;-77
2023/05/09 07:05:41;;;;;;;2.03;1.92;;;;;;;;;;4972526;28;20043;-78
2023/05/09 07:08:06;;;;;;;1.98;1.88;;;;;;;;;;4963891;28;20180;-77
2023/05/09 07:10:33;;;;;;;2.05;1.92;;;;;;;;;;4969140;28;20092;-77
2023/05/09 07:13:02;;;;;;;2.53;2.33;;;;;;;;;;4974189;28;20035;-77
2023/05/09 07:15:36;;;;;;;3.03;2.45;;;;;;;;;;4953596;28;20035;-77
2023/05/09 07:18:02;;;;;;;2.88;2.40;;;;;;;;;;4970241;28;20035;-77
2023/05/09 07:20:28;;;;;;;2.25;2.15;;;;;;;;;;4971101;28;20058;-76
2023/05/09 07:22:57;;;;;;;2.17;2.00;;;;;;;;;;4970196;28;20436;-76
2023/05/09 07:25:23;;;;;;;3.30;2.10;;;;;;;;;;4986364;28;20049;-78
2023/05/09 07:27:49;;;;;;;6.00;2.25;;;;;;;;;;4972750;28;20027;-77
2023/05/09 07:30:16;;;;;;;4.07;3.58;;;;;;;;;;4973702;28;20035;-77
2023/05/09 07:32:42;;;;;;;2.50;2.30;;;;;;;;;;4958588;28;20441;-78
2023/05/09 07:35:08;;;;;;;10.25;9.23;;;;;;;;;;4975093;28;20042;-78
2023/05/09 07:37:34;;;;;;;3.38;2.22;;;;;;;;;;4974793;28;20129;-78
2023/05/09 07:40:04;;;;;;;2.20;1.90;;;;;;;;;;4958166;28;20065;-78
2023/05/09 07:42:33;;;;;;;4.90;2.40;;;;;;;;;;4973332;28;20034;-78
2023/05/09 07:44:59;;;;;;;2.53;2.20;;;;;;;;;;4974495;28;20045;-78
2023/05/09 07:47:26;;;;;;;2.40;2.20;;;;;;;;;;4972555;28;20050;-78
2023/05/09 07:49:52;;;;;;;2.88;2.58;;;;;;;;;;4973701;28;20037;-78
2023/05/09 07:52:18;;;;;;;4.25;2.50;;;;;;;;;;4975054;28;20035;-78
2023/05/09 07:54:44;;;;;;;2.90;2.78;;;;;;;;;;4984560;28;20030;-77
2023/05/09 07:57:14;;;;;;;3.00;2.35;;;;;;;;;;4956389;28;20490;-79
2023/05/09 07:59:43;;;;;;;2.60;2.40;;;;;;;;;;4972693;28;20501;-77
2023/05/09 08:02:09;;;;;;;4.20;2.60;;;;;;;;;;4971771;28;20096;-76
2023/05/09 08:04:37;;;;;;;3.72;2.33;;;;;;;;;;4970916;28;20046;-77
2023/05/09 08:07:03;;;;;;;2.78;2.58;;;;;;;;;;4955150;28;20038;-77
2023/05/09 08:09:29;;;;;;;5.25;2.30;;;;;;;;;;4983851;28;20038;-77
2023/05/09 08:11:57;;;;;;;4.25;2.40;;;;;;;;;;4954477;28;20042;-77
2023/05/09 08:14:25;;;;;;;2.42;2.22;;;;;;;;;;4971974;28;20123;-77
2023/05/09 08:16:54;;;;;;;2.20;2.10;;;;;;;;;;4970808;28;20050;-77
2023/05/09 08:19:24;;;;;;;4.18;2.20;;;;;;;;;;4970723;28;20130;-77
2023/05/09 08:21:51;;;;;;;3.03;2.03;;;;;;;;;;4942458;28;20513;-78
2023/05/09 08:24:20;;;;;;;2.00;1.90;;;;;;;;;;4951908;28;20047;-79
2023/05/09 08:26:49;;;;;;;2.25;2.15;;;;;;;;;;4972003;28;20066;-80
2023/05/09 08:29:16;;;;;;;2.78;2.17;;;;;;;;;;4951311;29;20039;-78
2023/05/09 08:31:43;;;;;;;2.70;2.50;;;;;;;;;;4938671;28;20128;-78
2023/05/09 08:34:09;;;;;;;8.50;2.50;;;;;;;;;;4970713;28;20047;-77
2023/05/09 08:36:35;;;;;;;3.08;2.78;;;;;;;;;;4970702;28;20166;-77
2023/05/09 08:39:01;;;;;;;3.25;2.40;;;;;;;;;;4970581;28;20042;-77
2023/05/09 08:41:27;;;;;;;2.40;2.30;;;;;;;;;;4972319;28;20541;-77
2023/05/09 08:43:53;;;;;;;2.53;2.33;;;;;;;;;;4971957;28;20055;-77
2023/05/09 08:46:30;;;;;;;4.07;2.15;;;;;;;;;;4973380;28;20027;-78
2023/05/09 08:48:56;;;;;;;2.60;2.40;;;;;;;;;;4972759;28;20043;-78
2023/05/09 08:51:22;;;;;;;5.55;2.22;;;;;;;;;;4951605;28;20031;-78
2023/05/09 08:53:48;;;;;;;6.45;2.13;;;;;;;;;;4947832;28;20039;-78
2023/05/09 08:56:14;;;;;;;2.45;2.20;;;;;;;;;;4968543;28;20098;-77
2023/05/09 08:58:41;;;;;;;2.45;2.25;;;;;;;;;;4972874;28;20042;-78
2023/05/09 09:01:07;;;;;;;2.30;2.08;;;;;;;;;;4971733;28;20026;-77
2023/05/09 09:03:33;;;;;;;4.78;2.40;;;;;;;;;;4971811;28;20046;-77
2023/05/09 09:05:59;;;;;;;2.40;2.30;;;;;;;;;;4966439;28;20051;-77
2023/05/09 09:08:25;;;;;;;4.47;2.40;;;;;;;;;;4964982;28;20039;-77
2023/05/09 09:10:51;;;;;;;2.33;2.22;;;;;;;;;;4971106;28;20130;-78
2023/05/09 09:13:17;;;;;;;2.35;2.15;;;;;;;;;;4975637;28;20073;-78
2023/05/09 09:15:44;;;;;;;2.25;2.03;;;;;;;;;;4984645;28;20030;-78
2023/05/09 09:18:11;;;;;;;2.30;2.15;;;;;;;;;;4983423;28;20152;-77
2023/05/09 09:20:39;;;;;;;2.35;2.15;;;;;;;;;;4963586;28;20083;-77
2023/05/09 09:23:06;;;;;;;4.35;2.92;;;;;;;;;;4956175;28;20465;-78
2023/05/09 09:25:32;;;;;;;2.80;2.60;;;;;;;;;;4969091;28;20042;-77
2023/05/09 09:27:58;;;;;;;6.35;2.45;;;;;;;;;;4966301;28;20524;-75
2023/05/09 09:30:25;;;;;;;2.30;2.20;;;;;;;;;;4969444;28;20038;-76
2023/05/09 09:32:51;;;;;;;2.20;2.10;;;;;;;;;;4966759;28;20058;-77
2023/05/09 09:35:19;;;;;;;2.65;2.00;;;;;;;;;;4968106;28;20065;-77
2023/05/09 09:37:45;;;;;;;4.88;2.10;;;;;;;;;;4974972;28;20078;-75
2023/05/09 09:40:11;;;;;;;2.50;2.28;;;;;;;;;;4974950;28;20414;-76
2023/05/09 09:42:43;;;;;;;2.38;2.28;;;;;;;;;;4966697;28;20041;-75
2023/05/09 09:45:11;;;;;;;2.40;2.30;;;;;;;;;;4971492;28;20043;-76
2023/05/09 09:47:37;;;;;;;2.78;2.58;;;;;;;;;;4977512;28;20458;-75
2023/05/09 09:50:10;;;;;;;3.03;2.30;;;;;;;;;;4976958;28;20039;-75
2023/05/09 09:52:36;;;;;;;2.83;2.63;;;;;;;;;;4973016;28;20118;-76
2023/05/09 09:55:03;;;;;;;2.58;2.30;;;;;;;;;;4965819;28;20065;-76
2023/05/09 09:57:35;;;;;;;2.08;1.98;;;;;;;;;;4986855;28;20037;-78
2023/05/09 10:00:01;;;;;;;2.50;2.30;;;;;;;;;;5009546;28;20041;-79
2023/05/09 10:02:27;;;;;;;3.30;2.40;;;;;;;;;;4996141;28;20030;-78
2023/05/09 10:04:53;;;;;;;2.17;2.00;;;;;;;;;;4989503;28;20081;-77
2023/05/09 10:07:22;;;;;;;2.60;2.40;;;;;;;;;;4980070;28;20038;-76
2023/05/09 10:09:48;;;;;;;3.63;2.63;;;;;;;;;;4985594;28;20036;-77
2023/05/09 10:12:18;;;;;;;2.40;2.28;;;;;;;;;;4977412;28;20038;-76
2023/05/09 10:14:44;;;;;;;3.20;2.30;;;;;;;;;;4989749;28;20121;-76
2023/05/09 10:17:12;;;;;;;4.28;2.60;;;;;;;;;;4973893;28;20042;-76
2023/05/09 10:19:38;;;;;;;2.50;2.30;;;;;;;;;;4973389;28;20119;-76
2023/05/09 10:22:05;;;;;;;4.25;2.55;;;;;;;;;;4974460;28;20038;-76
2023/05/09 10:24:30;;;;;;;4.05;2.30;;;;;;;;;;4972637;28;20051;-76
2023/05/09 10:27:03;;;;;;;6.13;2.72;;;;;;;;;;4973693;28;20057;-76
2023/05/09 10:29:30;;;;;;;14.75;2.30;;;;;;;;;;4971095;28;20043;-76
2023/05/09 10:31:58;;;;;;;2.60;2.30;;;;;;;;;;4971387;28;20054;-77
2023/05/09 10:34:24;;;;;;;3.25;2.30;;;;;;;;;;4972495;28;20509;-77
2023/05/09 10:36:50;;;;;;;2.35;2.20;;;;;;;;;;4974138;28;20034;-77
2023/05/09 10:39:16;;;;;;;2.50;2.40;;;;;;;;;;4973142;28;20042;-76
2023/05/09 10:41:43;;;;;;;2.90;2.60;;;;;;;;;;4955792;29;20039;-77
2023/05/09 10:44:09;;;;;;;2.60;2.40;;;;;;;;;;4973303;28;20053;-78
2023/05/09 10:46:35;;;;;;;2.78;2.50;;;;;;;;;;4977975;28;20039;-76
2023/05/09 10:49:01;;;;;;;3.35;2.25;;;;;;;;;;4975698;28;20042;-76
2023/05/09 10:51:28;;;;;;;3.72;2.55;;;;;;;;;;4977116;28;20531;-75
2023/05/09 10:53:55;;;;;;;2.60;2.42;;;;;;;;;;4974126;28;20026;-75
2023/05/09 10:56:21;;;;;;;11.30;2.70;;;;;;;;;;4934907;28;20035;-75
2023/05/09 10:58:47;;;;;;;2.58;2.38;;;;;;;;;;4951965;28;20051;-75
2023/05/09 11:01:13;;;;;;;2.92;2.38;;;;;;;;;;4972080;28;20070;-75
2023/05/09 11:03:55;;;;;;;2.55;2.35;;;;;;;;;;4977286;28;20054;-75
2023/05/09 11:06:44;;;;;;;3.92;2.45;;;;;;;;;;4978386;28;20217;-77
2023/05/09 11:09:27;;;;;;;2.60;2.40;;;;;;;;;;4980012;28;20086;-77
2023/05/09 11:12:13;;;;;;;3.97;2.30;;;;;;;;;;4986672;28;20133;-77
2023/05/09 11:15:02;;;;;;;5.35;2.70;;;;;;;;;;4972774;28;20094;-77
2023/05/09 11:17:31;;;;;;;2.53;2.33;;;;;;;;;;4975043;28;20544;-77
2023/05/09 11:19:58;;;;;;;4.70;2.83;;;;;;;;;;4968022;28;20046;-77
2023/05/09 11:22:31;;;;;;;2.63;2.42;;;;;;;;;;4998220;28;20094;-80
2023/05/09 11:25:04;;;;;;;5.05;2.90;;;;;;;;;;4963877;28;20146;-79
2023/05/09 11:27:41;;;;;;;2.42;2.33;;;;;;;;;;4974878;28;20049;-80
2023/05/09 11:30:07;;;;;;;3.05;2.35;;;;;;;;;;4972993;28;20039;-78
2023/05/09 11:32:35;;;;;;;3.70;2.50;;;;;;;;;;4979895;28;20120;-80
2023/05/09 11:35:05;;;;;;;2.50;2.40;;;;;;;;;;4966594;28;20050;-80
2023/05/09 11:37:31;;;;;;;3.13;2.83;;;;;;;;;;4963969;28;20059;-81
2023/05/09 11:39:58;;;;;;;4.32;2.65;;;;;;;;;;4996260;28;20268;-81
2023/05/09 11:42:25;;;;;;;2.78;2.58;;;;;;;;;;4982375;28;20034;-81
2023/05/09 11:44:51;;;;;;;3.67;2.60;;;;;;;;;;4982845;28;20042;-82
2023/05/09 11:47:18;;;;;;;7.93;3.13;;;;;;;;;;4983753;28;20031;-81
2023/05/09 11:49:44;;;;;;;4.82;2.95;;;;;;;;;;4962461;28;20207;-83
2023/05/09 11:52:11;;;;;;;2.30;2.20;;;;;;;;;;4975340;28;20031;-78
2023/05/09 11:54:37;;;;;;;2.80;2.60;;;;;;;;;;4948307;28;20031;-77
2023/05/09 11:57:04;;;;;;;3.00;2.53;;;;;;;;;;4959533;28;20498;-76
2023/05/09 11:59:30;;;;;;;5.80;2.80;;;;;;;;;;4957503;28;20039;-75
2023/05/09 12:01:56;;;;;;;3.25;2.58;;;;;;;;;;4943463;28;20046;-78
2023/05/09 12:04:22;;;;;;;2.67;2.53;;;;;;;;;;4952834;28;20421;-78
2023/05/09 12:06:48;;;;;;;5.22;2.50;;;;;;;;;;4956236;28;20039;-78
2023/05/09 12:09:15;;;;;;;3.22;2.95;;;;;;;;;;4966672;28;20039;-78
2023/05/09 12:11:48;;;;;;;2.70;2.50;;;;;;;;;;4961442;28;20061;-78
2023/05/09 12:14:29;;;;;;;4.55;2.58;;;;;;;;;;4962679;28;20071;-77
2023/05/09 12:16:56;;;;;;;4.00;2.33;;;;;;;;;;4966648;28;20033;-80
2023/05/09 12:19:22;;;;;;;2.33;2.22;;;;;;;;;;4952162;28;20039;-78
2023/05/09 12:21:48;;;;;;;4.10;2.83;;;;;;;;;;4979236;28;20116;-79
2023/05/09 12:24:19;;;;;;;3.33;3.13;;;;;;;;;;4961584;28;20050;-78
2023/05/09 12:26:45;;;;;;;4.43;2.60;;;;;;;;;;4965504;28;20035;-79
2023/05/09 12:29:11;;;;;;;5.60;2.55;;;;;;;;;;4968474;28;20312;-79
2023/05/09 12:31:38;;;;;;;2.72;2.53;;;;;;;;;;4936709;28;20141;-80
2023/05/09 12:34:04;;;;;;;5.38;2.70;;;;;;;;;;4968298;28;20137;-78
2023/05/09 12:36:33;;;;;;;5.38;2.47;;;;;;;;;;4933902;29;20035;-79
2023/05/09 12:38:59;;;;;;;2.53;2.33;;;;;;;;;;4967483;28;20042;-79
2023/05/09 12:41:25;;;;;;;2.45;2.30;;;;;;;;;;4969303;28;20031;-78
2023/05/09 12:43:52;;;;;;;6.38;2.50;;;;;;;;;;4957916;28;20043;-78
2023/05/09 12:46:18;;;;;;;2.97;2.78;;;;;;;;;;4941169;28;20035;-77
2023/05/09 12:48:46;;;;;;;2.50;2.40;;;;;;;;;;4957128;28;20038;-78
2023/05/09 12:51:14;;;;;;;6.18;2.72;;;;;;;;;;4963435;28;20050;-79
2023/05/09 12:53:41;;;;;;;3.55;3.25;;;;;;;;;;4965095;28;20043;-79
2023/05/09 12:56:14;;;;;;;2.88;2.50;;;;;;;;;;4967630;28;20023;-78
2023/05/09 12:58:46;;;;;;;3.15;2.95;;;;;;;;;;4971030;28;20047;-78
2023/05/09 13:01:13;;;;;;;3.03;2.72;;;;;;;;;;4970342;28;20386;-77
2023/05/09 13:03:39;;;;;;;3.15;2.95;;;;;;;;;;4958103;28;20043;-78
2023/05/09 13:06:06;;;;;;;4.35;2.60;;;;;;;;;;4950740;28;20034;-79
2023/05/09 13:08:32;;;;;;;5.78;3.03;;;;;;;;;;4965398;28;20031;-78
2023/05/09 13:11:01;;;;;;;2.83;2.20;;;;;;;;;;4970392;28;20073;-74
2023/05/09 13:13:28;;;;;;;5.45;2.70;;;;;;;;;;4969980;28;20498;-74
2023/05/09 13:15:54;;;;;;;3.50;2.67;;;;;;;;;;4970177;28;20038;-74
2023/05/09 13:18:20;;;;;;;3.58;2.70;;;;;;;;;;4972353;28;20042;-74
2023/05/09 13:20:46;;;;;;;4.30;3.20;;;;;;;;;;4964048;28;20035;-74
2023/05/09 13:23:12;;;;;;;3.55;2.92;;;;;;;;;;4964635;28;20039;-74
2023/05/09 13:25:38;;;;;;;3.00;2.83;;;;;;;;;;4965510;28;20077;-74
2023/05/09 13:28:05;;;;;;;6.07;2.80;;;;;;;;;;4979613;28;20145;-74
2023/05/09 13:30:31;;;;;;;7.72;3.78;;;;;;;;;;4972205;28;20542;-74
2023/05/09 13:32:57;;;;;;;3.85;2.75;;;;;;;;;;4973521;28;20509;-75
2023/05/09 13:35:23;;;;;;;3.00;2.28;;;;;;;;;;4938167;28;20457;-73
2023/05/09 13:37:50;;;;;;;2.92;2.72;;;;;;;;;;4973585;28;20042;-75
2023/05/09 13:40:16;;;;;;;4.07;2.70;;;;;;;;;;4974016;28;20118;-74
2023/05/09 13:42:42;;;;;;;4.60;2.60;;;;;;;;;;4967023;28;20122;-74
2023/05/09 13:45:08;;;;;;;3.15;2.85;;;;;;;;;;4937249;29;20524;-75
2023/05/09 13:47:35;;;;;;;2.72;2.53;;;;;;;;;;4966514;28;20034;-73
2023/05/09 13:50:02;;;;;;;2.88;2.42;;;;;;;;;;4972983;28;20039;-74
2023/05/09 13:52:30;;;;;;;2.95;2.80;;;;;;;;;;4972663;28;20027;-74
2023/05/09 13:54:56;;;;;;;6.43;2.92;;;;;;;;;;4956625;28;20037;-73
2023/05/09 13:57:22;;;;;;;3.58;2.97;;;;;;;;;;4972583;28;20512;-72
2023/05/09 13:59:48;;;;;;;3.50;3.30;;;;;;;;;;4966145;28;20176;-72
2023/05/09 14:02:15;;;;;;;3.20;2.90;;;;;;;;;;4957294;28;20197;-73
2023/05/09 14:04:41;;;;;;;3.50;2.58;;;;;;;;;;4954677;28;20043;-73
2023/05/09 14:07:09;;;;;;;2.80;2.60;;;;;;;;;;4953356;28;20519;-73
2023/05/09 14:09:38;;;;;;;3.30;2.70;;;;;;;;;;4953260;28;20425;-74
2023/05/09 14:12:06;;;;;;;4.85;3.10;;;;;;;;;;4955949;28;20065;-74
2023/05/09 14:14:32;;;;;;;2.90;2.70;;;;;;;;;;4961635;28;20047;-74
2023/05/09 14:16:58;;;;;;;2.83;2.63;;;;;;;;;;4960752;28;20030;-74
2023/05/09 14:19:28;;;;;;;3.33;3.03;;;;;;;;;;4965476;28;20039;-73
2023/05/09 14:21:54;;;;;;;3.85;3.55;;;;;;;;;;4954409;28;20035;-73
2023/05/09 14:24:20;;;;;;;4.40;2.92;;;;;;;;;;4956906;28;20047;-74
2023/05/09 14:26:46;;;;;;;26.73;16.90;;;;;;;;;;4965462;28;20101;-74
2023/05/09 14:29:12;;;;;;;2.83;2.55;;;;;;;;;;4963858;28;20062;-74
2023/05/09 14:31:38;;;;;;;4.57;3.67;;;;;;;;;;4952623;28;20085;-74
2023/05/09 14:34:05;;;;;;;6.43;3.30;;;;;;;;;;4954417;28;20047;-73
2023/05/09 14:36:33;;;;;;;3.10;2.90;;;;;;;;;;4961650;28;20133;-73
2023/05/09 14:38:59;;;;;;;2.97;2.78;;;;;;;;;;4953952;28;20042;-73
2023/05/09 14:41:26;;;;;;;2.90;2.70;;;;;;;;;;4953801;28;20031;-72
2023/05/09 14:43:52;;;;;;;2.70;2.60;;;;;;;;;;4953839;28;20047;-73